富山空港の過去48時間の天気

富山空港 (Toyama)

現在時刻: 7/23 03:28 JST (7/22 18:28 UTC) 以下の時間は現地時間です。

過去48時間のMETAR気象情報
時間 風向 風速(m/s) 視程 気温(℃) 湿度(%) 気圧(hPa) 天気現象
22 21:00 南南西 2 10km以上 30 70 1009
22 20:00 西南西 2 10km以上 31 62 1009
22 19:00 北西 2 10km以上 33 56 1009
22 18:00 北北東 3 10km以上 33 56 1008
22 17:00 3 10km以上 34 53 1008
22 16:00 4 10km以上 34 53 1008
22 15:00 4 10km以上 35 50 1008
22 14:00 6 10km以上 35 53 1008
22 13:00 4 10km以上 35 53 1009
22 12:13 5 10km以上 36 53 1009
22 12:00 北北東 5 10km以上 34 56 1009
22 11:00 北西 3 10km以上 35 50 1009
22 10:00 北西 2 10km以上 34 56 1010
22 09:44 北北西 3 10km以上 35 56 1010
22 09:00 北北西 2 10km以上 33 56 1010
22 08:23 西南西 2 10km以上 33 63 1010
22 08:00 2 10km以上 31 62 1010
22 07:00 不定 1 10km以上 30 70 1010
22 06:10 南南西 2 10km以上 28 74 1011
21 21:00 不定 1 10km以上 30 66 1011
21 20:00 北西 2 10km以上 31 59 1010
21 19:00 西 2 10km以上 32 52 1010
21 18:00 西 4 10km以上 33 56 1009
21 17:00 3 10km以上 34 56 1009
21 16:00 北北東 3 10km以上 34 53 1009
21 15:00 北北東 3 10km以上 34 53 1009
21 14:00 北北東 5 10km以上 35 53 1010
21 13:00 4 10km以上 35 50 1010
21 12:00 北北西 4 10km以上 35 50 1010
21 11:00 西北西 2 10km以上 35 47 1011
21 10:46 不定 2 10km以上 35 50 1011
21 10:00 北西 3 10km以上 33 56 1011
21 09:00 不定 2 10km以上 34 56 1011
21 08:00 南南西 2 10km以上 32 59 1011
21 07:00 3 10km以上 29 66 1011
21 06:10 4 10km以上 29 66 1011
RJNT 221200Z 20003KT CAVOK 30/24 Q1009
RJNT 221100Z 24003KT CAVOK 31/23 Q1009
RJNT 221000Z 32003KT 280V360 9999 FEW040 BKN/// 33/23 Q1009
RJNT 220900Z 02005KT 9999 FEW040 BKN/// 33/23 Q1008
RJNT 220800Z 01005KT 320V050 9999 FEW040 BKN/// 34/23 Q1008
RJNT 220700Z 01007KT 330V060 9999 FEW040 BKN/// 34/23 Q1008
RJNT 220600Z 35007KT 310V020 9999 FEW040 BKN/// 35/23 Q1008
RJNT 220500Z 36011KT 9999 FEW040 BKN/// 35/24 Q1008
RJNT 220400Z 35008KT 310V010 9999 FEW030 SCT050 BKN/// 35/24 Q1009
RJNT 220313Z 36009KT 330V040 9999 FEW030 SCT050 BKN/// 36/25 Q1009 RMK 1CU030 3CU050 A2981
RJNT 220300Z 02010KT 9999 FEW030 SCT050 BKN/// 34/24 Q1009
RJNT 220200Z 32005KT 260V020 9999 FEW030 BKN/// 35/23 Q1009
RJNT 220100Z 32004KT 270V030 9999 FEW030 BKN/// 34/24 Q1010
RJNT 220044Z 34006KT 290V010 9999 FEW030 SCT/// 35/25 Q1010 RMK 1CU030 A2984
RJNT 220000Z 33004KT 270V020 9999 FEW030 SCT/// 33/23 Q1010
RJNT 212323Z 24003KT 190V290 9999 FEW030 SCT/// 33/25 Q1010 RMK 1CU030 A2984
RJNT 212300Z 17004KT 100V230 9999 FEW030 SCT/// 31/23 Q1010
RJNT 212200Z VRB02KT 9999 FEW050 SCT/// 30/24 Q1010
RJNT 212110Z 21003KT 160V260 9999 FEW050 28/23 Q1011 RMK 1CU050 A2985
RJNT 211200Z VRB01KT 9999 SCT070 BKN/// 30/23 Q1011
RJNT 211100Z 31003KT 280V070 9999 FEW080 BKN/// 31/22 Q1010
RJNT 211000Z 28004KT 250V330 9999 FEW040 BKN/// 32/21 Q1010
RJNT 210900Z 27008KT 220V310 9999 FEW040 BKN/// 33/23 Q1009
RJNT 210800Z 36006KT 310V040 9999 SCT040 BKN/// 34/24 Q1009
RJNT 210700Z 02006KT 350V060 9999 FEW040 BKN/// 34/23 Q1009
RJNT 210600Z 02006KT 350V060 9999 FEW040 BKN/// 34/23 Q1009
RJNT 210500Z 02009KT 340V040 9999 FEW040 SCT/// 35/24 Q1010
RJNT 210400Z 36007KT 320V040 9999 FEW040 BKN/// 35/23 Q1010
RJNT 210300Z 34008KT 310V020 9999 FEW040 BKN/// 35/23 Q1010
RJNT 210200Z 29003KT 200V360 9999 FEW040 BKN/// 35/22 Q1011
RJNT 210146Z VRB03KT 9999 FEW030 BKN/// 35/23 Q1011 RMK 1CU030 A2986
RJNT 210100Z 31005KT 270V350 9999 FEW030 BKN/// 33/23 Q1011
RJNT 210000Z VRB03KT 9999 FEW030 BKN/// 34/24 Q1011
RJNT 202300Z 21004KT 160V240 9999 FEW050 BKN/// 32/23 Q1011
RJNT 202200Z 18005KT 140V210 9999 FEW050 BKN/// 29/22 Q1011
RJNT 202110Z 19008KT 9999 FEW050 SCT150 BKN/// 29/22 Q1011 RMK 1SC050 3AC150 A2985